Terminal Aerodrome Forecast
Issued by NWS

Home | Current Version | Previous Version | Graphics & Text | Print | Product List | Glossary On
Versions: 1 2 3 4 5 6 7 8 9 10 11 12 13 14 15 16 17 18 19 20
087
FTUS43 KICT 192325
TAFSLN
TAF
KSLN 192325Z 2000/2024 34005KT P6SM SCT200
     FM200500 34011KT P6SM BKN030
     FM200700 34009KT P6SM BKN015
     FM201900 34008KT P6SM BKN040=

USA.gov is the U.S. government's official web portal to all federal, state and local government web resources and services.